Portada
METAR-TAF:

METAR-TAF

Aeroports :

Bückeburg, Alemanya

latitud: 52-17N, longitud: 009-05E, altitud: 70 m

Observació

L'informe es va fer fa 33 minuts, a les 19:20 UTC
Vent 2 kt del Sud/Sud-Est
Temperatura 20°C
Humitat 46%
Pressió 1021 hPa
Visibilitat 10 km o més

METAR: ETHB 011920Z AUTO 15002KT 9999 // ////// 20/08 Q1021 ///

Hora: 21:53 (19:53 UTC)


TAF: manca

Observacions i pronòstics meteorològics de més de 4000 aeroports (METAR i TAF).

Les estacions disponibles són els punts grocs i vermells al mapa.

Posi el ratolí al punt desitjat per veure el nom de l'estació.

Feu clic per veure les observacions i els pronòstics meteorològics.

Per canviar el mapa: feu clic els botons verds amb una creu de color negre per apropar; al botó verd amb un guió per allunyar la imatge; o en les fletxes verdes per a mapes adjacents.


METAR-TAF: